sensor_id;sensor_type;location;lat;lon;timestamp;pressure;altitude;pressure_sealevel;temperature
15575;BMP180;7888;46.748;8.102;2023-05-14T00:02:18;93928.00;;;16.90
15575;BMP180;7888;46.748;8.102;2023-05-14T00:04:43;93914.00;;;16.90
15575;BMP180;7888;46.748;8.102;2023-05-14T00:07:09;93919.00;;;16.90
15575;BMP180;7888;46.748;8.102;2023-05-14T00:09:36;93915.00;;;16.90
15575;BMP180;7888;46.748;8.102;2023-05-14T00:12:02;93902.00;;;16.90
15575;BMP180;7888;46.748;8.102;2023-05-14T00:14:28;93910.00;;;16.80
15575;BMP180;7888;46.748;8.102;2023-05-14T00:16:53;93899.00;;;16.80
15575;BMP180;7888;46.748;8.102;2023-05-14T00:19:19;93905.00;;;16.80
15575;BMP180;7888;46.748;8.102;2023-05-14T00:21:46;93906.00;;;16.80
15575;BMP180;7888;46.748;8.102;2023-05-14T00:24:12;93902.00;;;16.80
15575;BMP180;7888;46.748;8.102;2023-05-14T00:26:38;93903.00;;;16.80
15575;BMP180;7888;46.748;8.102;2023-05-14T00:29:04;93886.00;;;16.80
15575;BMP180;7888;46.748;8.102;2023-05-14T00:31:29;93902.00;;;16.80
15575;BMP180;7888;46.748;8.102;2023-05-14T00:33:55;93905.00;;;16.80
15575;BMP180;7888;46.748;8.102;2023-05-14T00:36:21;93897.00;;;16.80
15575;BMP180;7888;46.748;8.102;2023-05-14T00:38:46;93898.00;;;16.80
15575;BMP180;7888;46.748;8.102;2023-05-14T00:41:12;93898.00;;;16.80
15575;BMP180;7888;46.748;8.102;2023-05-14T00:43:38;93894.00;;;16.70
15575;BMP180;7888;46.748;8.102;2023-05-14T00:46:04;93897.00;;;16.70
15575;BMP180;7888;46.748;8.102;2023-05-14T00:48:30;93898.00;;;16.70
15575;BMP180;7888;46.748;8.102;2023-05-14T00:50:56;93900.00;;;16.70
15575;BMP180;7888;46.748;8.102;2023-05-14T00:53:22;93895.00;;;16.70
15575;BMP180;7888;46.748;8.102;2023-05-14T00:55:49;93891.00;;;16.70
15575;BMP180;7888;46.748;8.102;2023-05-14T00:58:17;93893.00;;;16.70
15575;BMP180;7888;46.748;8.102;2023-05-14T01:00:44;93861.00;;;16.70
15575;BMP180;7888;46.748;8.102;2023-05-14T01:03:10;93895.00;;;16.70
15575;BMP180;7888;46.748;8.102;2023-05-14T01:06:03;93905.00;;;16.60
15575;BMP180;7888;46.748;8.102;2023-05-14T01:08:49;93900.00;;;16.60
15575;BMP180;7888;46.748;8.102;2023-05-14T01:12:04;93901.00;;;16.50
15575;BMP180;7888;46.748;8.102;2023-05-14T01:15:12;93895.00;;;16.50
15575;BMP180;7888;46.748;8.102;2023-05-14T01:17:47;93892.00;;;16.50
15575;BMP180;7888;46.748;8.102;2023-05-14T01:20:14;93893.00;;;16.50
15575;BMP180;7888;46.748;8.102;2023-05-14T01:22:40;93891.00;;;16.50
15575;BMP180;7888;46.748;8.102;2023-05-14T01:25:07;93883.00;;;16.50
15575;BMP180;7888;46.748;8.102;2023-05-14T01:33:16;93885.00;;;16.50
15575;BMP180;7888;46.748;8.102;2023-05-14T01:35:45;93867.00;;;16.50
15575;BMP180;7888;46.748;8.102;2023-05-14T01:38:16;93885.00;;;16.50
15575;BMP180;7888;46.748;8.102;2023-05-14T01:40:44;93885.00;;;16.50
15575;BMP180;7888;46.748;8.102;2023-05-14T01:43:11;93888.00;;;16.50
15575;BMP180;7888;46.748;8.102;2023-05-14T01:45:37;93874.00;;;16.50
15575;BMP180;7888;46.748;8.102;2023-05-14T01:48:04;93880.00;;;16.50
15575;BMP180;7888;46.748;8.102;2023-05-14T01:50:30;93879.00;;;16.50
15575;BMP180;7888;46.748;8.102;2023-05-14T01:52:56;93878.00;;;16.50
15575;BMP180;7888;46.748;8.102;2023-05-14T01:55:23;93876.00;;;16.50
15575;BMP180;7888;46.748;8.102;2023-05-14T01:57:52;93874.00;;;16.50
15575;BMP180;7888;46.748;8.102;2023-05-14T02:00:20;93883.00;;;16.50
15575;BMP180;7888;46.748;8.102;2023-05-14T02:02:46;93873.00;;;16.50
15575;BMP180;7888;46.748;8.102;2023-05-14T02:05:12;93870.00;;;16.50
15575;BMP180;7888;46.748;8.102;2023-05-14T02:07:38;93859.00;;;16.50
15575;BMP180;7888;46.748;8.102;2023-05-14T02:10:05;93868.00;;;16.50
15575;BMP180;7888;46.748;8.102;2023-05-14T02:12:31;93868.00;;;16.50
15575;BMP180;7888;46.748;8.102;2023-05-14T02:14:57;93860.00;;;16.50
15575;BMP180;7888;46.748;8.102;2023-05-14T02:17:25;93858.00;;;16.50
15575;BMP180;7888;46.748;8.102;2023-05-14T02:19:50;93873.00;;;16.50
15575;BMP180;7888;46.748;8.102;2023-05-14T02:22:16;93857.00;;;16.50
15575;BMP180;7888;46.748;8.102;2023-05-14T02:24:42;93862.00;;;16.50
15575;BMP180;7888;46.748;8.102;2023-05-14T02:27:08;93867.00;;;16.50
15575;BMP180;7888;46.748;8.102;2023-05-14T02:29:33;93861.00;;;16.50
15575;BMP180;7888;46.748;8.102;2023-05-14T02:31:59;93860.00;;;16.50
15575;BMP180;7888;46.748;8.102;2023-05-14T02:34:25;93856.00;;;16.40
15575;BMP180;7888;46.748;8.102;2023-05-14T02:36:50;93847.00;;;16.50
15575;BMP180;7888;46.748;8.102;2023-05-14T02:39:16;93862.00;;;16.50
15575;BMP180;7888;46.748;8.102;2023-05-14T02:41:42;93856.00;;;16.40
15575;BMP180;7888;46.748;8.102;2023-05-14T02:44:08;93850.00;;;16.40
15575;BMP180;7888;46.748;8.102;2023-05-14T02:46:34;93844.00;;;16.40
15575;BMP180;7888;46.748;8.102;2023-05-14T02:48:59;93849.00;;;16.40
15575;BMP180;7888;46.748;8.102;2023-05-14T02:51:26;93847.00;;;16.40
15575;BMP180;7888;46.748;8.102;2023-05-14T02:53:52;93832.00;;;16.40
15575;BMP180;7888;46.748;8.102;2023-05-14T02:56:17;93850.00;;;16.40
15575;BMP180;7888;46.748;8.102;2023-05-14T02:58:43;93854.00;;;16.40
15575;BMP180;7888;46.748;8.102;2023-05-14T03:01:09;93851.00;;;16.40
15575;BMP180;7888;46.748;8.102;2023-05-14T03:03:35;93832.00;;;16.40
15575;BMP180;7888;46.748;8.102;2023-05-14T03:06:00;93858.00;;;16.40
15575;BMP180;7888;46.748;8.102;2023-05-14T03:08:26;93818.00;;;16.40
15575;BMP180;7888;46.748;8.102;2023-05-14T03:10:52;93839.00;;;16.40
15575;BMP180;7888;46.748;8.102;2023-05-14T03:13:18;93840.00;;;16.40
15575;BMP180;7888;46.748;8.102;2023-05-14T03:15:45;93845.00;;;16.40
15575;BMP180;7888;46.748;8.102;2023-05-14T03:18:13;93836.00;;;16.40
15575;BMP180;7888;46.748;8.102;2023-05-14T03:20:38;93830.00;;;16.40
15575;BMP180;7888;46.748;8.102;2023-05-14T03:23:04;93837.00;;;16.50
15575;BMP180;7888;46.748;8.102;2023-05-14T03:25:30;93843.00;;;16.50
15575;BMP180;7888;46.748;8.102;2023-05-14T03:27:56;93833.00;;;16.40
15575;BMP180;7888;46.748;8.102;2023-05-14T03:30:22;93833.00;;;16.50
15575;BMP180;7888;46.748;8.102;2023-05-14T03:32:48;93836.00;;;16.40
15575;BMP180;7888;46.748;8.102;2023-05-14T03:35:13;93837.00;;;16.40
15575;BMP180;7888;46.748;8.102;2023-05-14T03:37:39;93842.00;;;16.40
15575;BMP180;7888;46.748;8.102;2023-05-14T03:40:06;93823.00;;;16.40
15575;BMP180;7888;46.748;8.102;2023-05-14T03:42:32;93842.00;;;16.40
15575;BMP180;7888;46.748;8.102;2023-05-14T03:44:58;93838.00;;;16.40
15575;BMP180;7888;46.748;8.102;2023-05-14T03:47:23;93841.00;;;16.40
15575;BMP180;7888;46.748;8.102;2023-05-14T03:49:49;93825.00;;;16.40
15575;BMP180;7888;46.748;8.102;2023-05-14T03:52:15;93842.00;;;16.40
15575;BMP180;7888;46.748;8.102;2023-05-14T03:54:41;93845.00;;;16.40
15575;BMP180;7888;46.748;8.102;2023-05-14T03:57:06;93835.00;;;16.40
15575;BMP180;7888;46.748;8.102;2023-05-14T03:59:32;93835.00;;;16.30
15575;BMP180;7888;46.748;8.102;2023-05-14T04:01:58;93840.00;;;16.40
15575;BMP180;7888;46.748;8.102;2023-05-14T04:04:23;93828.00;;;16.30
15575;BMP180;7888;46.748;8.102;2023-05-14T04:06:49;93837.00;;;16.30
15575;BMP180;7888;46.748;8.102;2023-05-14T04:09:15;93807.00;;;16.30
15575;BMP180;7888;46.748;8.102;2023-05-14T04:11:41;93840.00;;;16.40
15575;BMP180;7888;46.748;8.102;2023-05-14T04:14:07;93822.00;;;16.40
15575;BMP180;7888;46.748;8.102;2023-05-14T04:16:32;93829.00;;;16.40
15575;BMP180;7888;46.748;8.102;2023-05-14T04:19:01;93830.00;;;16.40
15575;BMP180;7888;46.748;8.102;2023-05-14T04:21:29;93832.00;;;16.40
15575;BMP180;7888;46.748;8.102;2023-05-14T04:23:55;93829.00;;;16.40
15575;BMP180;7888;46.748;8.102;2023-05-14T04:26:20;93836.00;;;16.40
15575;BMP180;7888;46.748;8.102;2023-05-14T04:28:46;93825.00;;;16.40
15575;BMP180;7888;46.748;8.102;2023-05-14T04:31:12;93841.00;;;16.40
15575;BMP180;7888;46.748;8.102;2023-05-14T04:33:38;93838.00;;;16.40
15575;BMP180;7888;46.748;8.102;2023-05-14T04:36:04;93833.00;;;16.40
15575;BMP180;7888;46.748;8.102;2023-05-14T04:38:30;93835.00;;;16.40
15575;BMP180;7888;46.748;8.102;2023-05-14T04:40:57;93812.00;;;16.40
15575;BMP180;7888;46.748;8.102;2023-05-14T04:43:23;93827.00;;;16.40
15575;BMP180;7888;46.748;8.102;2023-05-14T04:45:49;93836.00;;;16.40
15575;BMP180;7888;46.748;8.102;2023-05-14T04:48:15;93856.00;;;16.40
15575;BMP180;7888;46.748;8.102;2023-05-14T04:50:41;93842.00;;;16.40
15575;BMP180;7888;46.748;8.102;2023-05-14T04:53:09;93849.00;;;16.40
15575;BMP180;7888;46.748;8.102;2023-05-14T04:55:35;93803.00;;;16.40
15575;BMP180;7888;46.748;8.102;2023-05-14T04:58:01;93845.00;;;16.50
15575;BMP180;7888;46.748;8.102;2023-05-14T05:00:28;93848.00;;;16.50
15575;BMP180;7888;46.748;8.102;2023-05-14T05:02:54;93854.00;;;16.50
15575;BMP180;7888;46.748;8.102;2023-05-14T05:05:20;93860.00;;;16.50
15575;BMP180;7888;46.748;8.102;2023-05-14T05:07:46;93856.00;;;16.50
15575;BMP180;7888;46.748;8.102;2023-05-14T05:10:12;93855.00;;;16.50
15575;BMP180;7888;46.748;8.102;2023-05-14T05:12:38;93854.00;;;16.50
15575;BMP180;7888;46.748;8.102;2023-05-14T05:15:04;93849.00;;;16.50
15575;BMP180;7888;46.748;8.102;2023-05-14T05:17:31;93853.00;;;16.50
15575;BMP180;7888;46.748;8.102;2023-05-14T05:19:56;93856.00;;;16.50
15575;BMP180;7888;46.748;8.102;2023-05-14T05:22:23;93852.00;;;16.50
15575;BMP180;7888;46.748;8.102;2023-05-14T05:24:48;93851.00;;;16.50
15575;BMP180;7888;46.748;8.102;2023-05-14T05:27:14;93856.00;;;16.50
15575;BMP180;7888;46.748;8.102;2023-05-14T05:29:40;93840.00;;;16.50
15575;BMP180;7888;46.748;8.102;2023-05-14T05:32:07;93855.00;;;16.50
15575;BMP180;7888;46.748;8.102;2023-05-14T05:34:33;93862.00;;;16.40
15575;BMP180;7888;46.748;8.102;2023-05-14T05:37:00;93855.00;;;16.50
15575;BMP180;7888;46.748;8.102;2023-05-14T05:39:26;93857.00;;;16.50
15575;BMP180;7888;46.748;8.102;2023-05-14T05:41:52;93858.00;;;16.50
15575;BMP180;7888;46.748;8.102;2023-05-14T05:44:18;93847.00;;;16.50
15575;BMP180;7888;46.748;8.102;2023-05-14T05:46:44;93860.00;;;16.50
15575;BMP180;7888;46.748;8.102;2023-05-14T05:49:10;93856.00;;;16.50
15575;BMP180;7888;46.748;8.102;2023-05-14T05:51:36;93859.00;;;16.50
15575;BMP180;7888;46.748;8.102;2023-05-14T05:54:01;93861.00;;;16.50
15575;BMP180;7888;46.748;8.102;2023-05-14T05:56:27;93857.00;;;16.50
15575;BMP180;7888;46.748;8.102;2023-05-14T05:58:53;93861.00;;;16.50
15575;BMP180;7888;46.748;8.102;2023-05-14T06:01:18;93842.00;;;16.50
15575;BMP180;7888;46.748;8.102;2023-05-14T06:03:44;93862.00;;;16.60
15575;BMP180;7888;46.748;8.102;2023-05-14T06:06:10;93853.00;;;16.60
15575;BMP180;7888;46.748;8.102;2023-05-14T06:08:36;93849.00;;;16.60
15575;BMP180;7888;46.748;8.102;2023-05-14T06:11:01;93854.00;;;16.60
15575;BMP180;7888;46.748;8.102;2023-05-14T06:13:27;93857.00;;;16.60
15575;BMP180;7888;46.748;8.102;2023-05-14T06:15:53;93843.00;;;16.60
15575;BMP180;7888;46.748;8.102;2023-05-14T06:18:18;93851.00;;;16.60
15575;BMP180;7888;46.748;8.102;2023-05-14T06:20:44;93860.00;;;16.60
15575;BMP180;7888;46.748;8.102;2023-05-14T06:23:10;93853.00;;;16.50
15575;BMP180;7888;46.748;8.102;2023-05-14T06:25:36;93850.00;;;16.50
15575;BMP180;7888;46.748;8.102;2023-05-14T06:28:02;93839.00;;;16.50
15575;BMP180;7888;46.748;8.102;2023-05-14T06:30:28;93858.00;;;16.40
15575;BMP180;7888;46.748;8.102;2023-05-14T06:32:54;93848.00;;;16.50
15575;BMP180;7888;46.748;8.102;2023-05-14T06:35:20;93829.00;;;16.50
15575;BMP180;7888;46.748;8.102;2023-05-14T06:37:45;93850.00;;;16.50
15575;BMP180;7888;46.748;8.102;2023-05-14T06:40:12;93856.00;;;16.50
15575;BMP180;7888;46.748;8.102;2023-05-14T06:42:40;93848.00;;;16.60
15575;BMP180;7888;46.748;8.102;2023-05-14T06:45:07;93848.00;;;16.60
15575;BMP180;7888;46.748;8.102;2023-05-14T06:47:32;93851.00;;;16.60
15575;BMP180;7888;46.748;8.102;2023-05-14T06:49:58;93844.00;;;16.60
15575;BMP180;7888;46.748;8.102;2023-05-14T06:52:26;93845.00;;;16.70
15575;BMP180;7888;46.748;8.102;2023-05-14T06:54:52;93846.00;;;16.70
15575;BMP180;7888;46.748;8.102;2023-05-14T06:57:17;93844.00;;;16.70
15575;BMP180;7888;46.748;8.102;2023-05-14T06:59:43;93836.00;;;16.80
15575;BMP180;7888;46.748;8.102;2023-05-14T07:02:09;93847.00;;;16.80
15575;BMP180;7888;46.748;8.102;2023-05-14T07:04:35;93842.00;;;16.80
15575;BMP180;7888;46.748;8.102;2023-05-14T07:07:01;93832.00;;;16.80
15575;BMP180;7888;46.748;8.102;2023-05-14T07:09:27;93838.00;;;16.80
15575;BMP180;7888;46.748;8.102;2023-05-14T07:11:53;93852.00;;;16.80
15575;BMP180;7888;46.748;8.102;2023-05-14T07:14:18;93848.00;;;16.80
15575;BMP180;7888;46.748;8.102;2023-05-14T07:16:44;93853.00;;;16.80
15575;BMP180;7888;46.748;8.102;2023-05-14T07:19:11;93849.00;;;16.80
15575;BMP180;7888;46.748;8.102;2023-05-14T07:21:37;93840.00;;;16.80
15575;BMP180;7888;46.748;8.102;2023-05-14T07:24:03;93849.00;;;16.80
15575;BMP180;7888;46.748;8.102;2023-05-14T07:26:29;93841.00;;;16.80
15575;BMP180;7888;46.748;8.102;2023-05-14T07:28:56;93845.00;;;16.80
15575;BMP180;7888;46.748;8.102;2023-05-14T07:31:21;93848.00;;;16.80
15575;BMP180;7888;46.748;8.102;2023-05-14T07:33:47;93821.00;;;16.80
15575;BMP180;7888;46.748;8.102;2023-05-14T07:36:13;93846.00;;;16.90
15575;BMP180;7888;46.748;8.102;2023-05-14T07:38:39;93844.00;;;16.90
15575;BMP180;7888;46.748;8.102;2023-05-14T07:41:05;93842.00;;;16.90
15575;BMP180;7888;46.748;8.102;2023-05-14T07:43:31;93845.00;;;16.90
15575;BMP180;7888;46.748;8.102;2023-05-14T07:45:57;93842.00;;;16.90
15575;BMP180;7888;46.748;8.102;2023-05-14T07:48:22;93849.00;;;16.90
15575;BMP180;7888;46.748;8.102;2023-05-14T07:50:48;93847.00;;;16.90
15575;BMP180;7888;46.748;8.102;2023-05-14T07:53:14;93844.00;;;16.90
15575;BMP180;7888;46.748;8.102;2023-05-14T07:55:40;93840.00;;;16.90
15575;BMP180;7888;46.748;8.102;2023-05-14T07:58:06;93839.00;;;16.90
15575;BMP180;7888;46.748;8.102;2023-05-14T08:00:32;93842.00;;;17.00
15575;BMP180;7888;46.748;8.102;2023-05-14T08:02:58;93845.00;;;17.00
15575;BMP180;7888;46.748;8.102;2023-05-14T08:05:24;93839.00;;;17.10
15575;BMP180;7888;46.748;8.102;2023-05-14T08:07:51;93839.00;;;17.10
15575;BMP180;7888;46.748;8.102;2023-05-14T08:10:16;93843.00;;;17.20
15575;BMP180;7888;46.748;8.102;2023-05-14T08:12:42;93839.00;;;17.20
15575;BMP180;7888;46.748;8.102;2023-05-14T08:15:09;93828.00;;;17.20
15575;BMP180;7888;46.748;8.102;2023-05-14T08:17:34;93837.00;;;17.30
15575;BMP180;7888;46.748;8.102;2023-05-14T08:20:00;93835.00;;;17.30
15575;BMP180;7888;46.748;8.102;2023-05-14T08:22:27;93822.00;;;17.30
15575;BMP180;7888;46.748;8.102;2023-05-14T08:24:53;93837.00;;;17.40
15575;BMP180;7888;46.748;8.102;2023-05-14T08:27:19;93825.00;;;17.30
15575;BMP180;7888;46.748;8.102;2023-05-14T08:29:45;93825.00;;;17.30
15575;BMP180;7888;46.748;8.102;2023-05-14T08:32:11;93833.00;;;17.40
15575;BMP180;7888;46.748;8.102;2023-05-14T08:34:37;93826.00;;;17.40
15575;BMP180;7888;46.748;8.102;2023-05-14T08:37:03;93825.00;;;17.50
15575;BMP180;7888;46.748;8.102;2023-05-14T08:39:29;93831.00;;;17.50
15575;BMP180;7888;46.748;8.102;2023-05-14T08:41:56;93825.00;;;17.50
15575;BMP180;7888;46.748;8.102;2023-05-14T08:44:47;93834.00;;;17.50
15575;BMP180;7888;46.748;8.102;2023-05-14T08:47:16;93833.00;;;17.60
15575;BMP180;7888;46.748;8.102;2023-05-14T08:49:46;93817.00;;;17.60
15575;BMP180;7888;46.748;8.102;2023-05-14T08:52:16;93830.00;;;17.70
15575;BMP180;7888;46.748;8.102;2023-05-14T08:54:44;93834.00;;;17.80
15575;BMP180;7888;46.748;8.102;2023-05-14T08:57:11;93831.00;;;17.90
15575;BMP180;7888;46.748;8.102;2023-05-14T08:59:37;93816.00;;;17.90
15575;BMP180;7888;46.748;8.102;2023-05-14T09:02:05;93824.00;;;18.00
15575;BMP180;7888;46.748;8.102;2023-05-14T09:04:31;93805.00;;;18.00
15575;BMP180;7888;46.748;8.102;2023-05-14T09:07:00;93818.00;;;18.10
15575;BMP180;7888;46.748;8.102;2023-05-14T09:09:27;93833.00;;;18.10
15575;BMP180;7888;46.748;8.102;2023-05-14T09:11:53;93821.00;;;18.20
15575;BMP180;7888;46.748;8.102;2023-05-14T09:14:20;93824.00;;;18.20
15575;BMP180;7888;46.748;8.102;2023-05-14T09:16:48;93823.00;;;18.30
15575;BMP180;7888;46.748;8.102;2023-05-14T09:19:15;93821.00;;;18.30
15575;BMP180;7888;46.748;8.102;2023-05-14T09:21:45;93818.00;;;18.30
15575;BMP180;7888;46.748;8.102;2023-05-14T09:24:23;93816.00;;;18.30
15575;BMP180;7888;46.748;8.102;2023-05-14T09:26:55;93820.00;;;18.30
15575;BMP180;7888;46.748;8.102;2023-05-14T09:29:26;93816.00;;;18.40
15575;BMP180;7888;46.748;8.102;2023-05-14T09:31:54;93816.00;;;18.50
15575;BMP180;7888;46.748;8.102;2023-05-14T09:34:29;93819.00;;;18.50
15575;BMP180;7888;46.748;8.102;2023-05-14T09:37:07;93807.00;;;18.50
15575;BMP180;7888;46.748;8.102;2023-05-14T09:39:35;93810.00;;;18.50
15575;BMP180;7888;46.748;8.102;2023-05-14T09:42:02;93818.00;;;18.60
15575;BMP180;7888;46.748;8.102;2023-05-14T09:44:28;93814.00;;;18.60
15575;BMP180;7888;46.748;8.102;2023-05-14T09:46:55;93820.00;;;18.60
15575;BMP180;7888;46.748;8.102;2023-05-14T09:49:21;93831.00;;;18.60
15575;BMP180;7888;46.748;8.102;2023-05-14T09:51:50;93820.00;;;18.70
15575;BMP180;7888;46.748;8.102;2023-05-14T09:54:16;93821.00;;;18.70
15575;BMP180;7888;46.748;8.102;2023-05-14T09:56:43;93822.00;;;18.70
15575;BMP180;7888;46.748;8.102;2023-05-14T09:59:09;93828.00;;;18.70
15575;BMP180;7888;46.748;8.102;2023-05-14T10:01:37;93825.00;;;18.70
15575;BMP180;7888;46.748;8.102;2023-05-14T10:04:06;93812.00;;;18.70
15575;BMP180;7888;46.748;8.102;2023-05-14T10:06:37;93841.00;;;18.80
15575;BMP180;7888;46.748;8.102;2023-05-14T10:09:10;93826.00;;;18.70
15575;BMP180;7888;46.748;8.102;2023-05-14T10:11:37;93821.00;;;18.80
15575;BMP180;7888;46.748;8.102;2023-05-14T10:14:32;93827.00;;;18.70
15575;BMP180;7888;46.748;8.102;2023-05-14T10:16:59;93808.00;;;18.70
15575;BMP180;7888;46.748;8.102;2023-05-14T10:19:32;93818.00;;;18.70
15575;BMP180;7888;46.748;8.102;2023-05-14T10:22:06;93818.00;;;18.70
15575;BMP180;7888;46.748;8.102;2023-05-14T10:24:33;93821.00;;;18.70
15575;BMP180;7888;46.748;8.102;2023-05-14T10:26:59;93818.00;;;18.70
15575;BMP180;7888;46.748;8.102;2023-05-14T10:29:36;93811.00;;;18.70
15575;BMP180;7888;46.748;8.102;2023-05-14T10:32:08;93812.00;;;18.80
15575;BMP180;7888;46.748;8.102;2023-05-14T10:37:06;93804.00;;;18.80
15575;BMP180;7888;46.748;8.102;2023-05-14T10:39:49;93819.00;;;18.80
15575;BMP180;7888;46.748;8.102;2023-05-14T10:42:26;93823.00;;;18.70
15575;BMP180;7888;46.748;8.102;2023-05-14T10:44:59;93823.00;;;18.70
15575;BMP180;7888;46.748;8.102;2023-05-14T10:47:30;93808.00;;;18.70
15575;BMP180;7888;46.748;8.102;2023-05-14T10:50:02;93819.00;;;18.80
15575;BMP180;7888;46.748;8.102;2023-05-14T10:52:29;93817.00;;;18.80
15575;BMP180;7888;46.748;8.102;2023-05-14T10:54:59;93817.00;;;18.80
15575;BMP180;7888;46.748;8.102;2023-05-14T10:57:30;93817.00;;;18.70
15575;BMP180;7888;46.748;8.102;2023-05-14T11:00:01;93813.00;;;18.80
15575;BMP180;7888;46.748;8.102;2023-05-14T11:02:33;93811.00;;;18.80
15575;BMP180;7888;46.748;8.102;2023-05-14T11:05:08;93816.00;;;18.80
15575;BMP180;7888;46.748;8.102;2023-05-14T11:12:37;93808.00;;;18.90
15575;BMP180;7888;46.748;8.102;2023-05-14T11:15:07;93803.00;;;18.80
15575;BMP180;7888;46.748;8.102;2023-05-14T11:17:38;93792.00;;;18.90
15575;BMP180;7888;46.748;8.102;2023-05-14T11:20:06;93801.00;;;18.80
15575;BMP180;7888;46.748;8.102;2023-05-14T11:22:37;93810.00;;;18.80
15575;BMP180;7888;46.748;8.102;2023-05-14T11:25:04;93783.00;;;18.90
15575;BMP180;7888;46.748;8.102;2023-05-14T11:27:35;93804.00;;;18.80
15575;BMP180;7888;46.748;8.102;2023-05-14T11:30:01;93810.00;;;18.90
15575;BMP180;7888;46.748;8.102;2023-05-14T11:32:30;93793.00;;;18.90
15575;BMP180;7888;46.748;8.102;2023-05-14T11:34:56;93810.00;;;19.00
15575;BMP180;7888;46.748;8.102;2023-05-14T11:37:23;93811.00;;;19.10
15575;BMP180;7888;46.748;8.102;2023-05-14T11:39:54;93804.00;;;19.10
15575;BMP180;7888;46.748;8.102;2023-05-14T11:42:21;93811.00;;;19.10
15575;BMP180;7888;46.748;8.102;2023-05-14T11:44:50;93811.00;;;19.20
15575;BMP180;7888;46.748;8.102;2023-05-14T11:47:19;93816.00;;;19.20
15575;BMP180;7888;46.748;8.102;2023-05-14T11:49:46;93817.00;;;19.20
15575;BMP180;7888;46.748;8.102;2023-05-14T11:52:14;93815.00;;;19.20
15575;BMP180;7888;46.748;8.102;2023-05-14T11:54:42;93816.00;;;19.10
15575;BMP180;7888;46.748;8.102;2023-05-14T11:57:15;93816.00;;;19.10
15575;BMP180;7888;46.748;8.102;2023-05-14T11:59:41;93813.00;;;19.10
15575;BMP180;7888;46.748;8.102;2023-05-14T12:02:17;93812.00;;;19.00
15575;BMP180;7888;46.748;8.102;2023-05-14T12:04:48;93816.00;;;18.90
15575;BMP180;7888;46.748;8.102;2023-05-14T12:07:15;93805.00;;;18.90
15575;BMP180;7888;46.748;8.102;2023-05-14T12:09:47;93812.00;;;18.80
15575;BMP180;7888;46.748;8.102;2023-05-14T12:12:20;93807.00;;;18.90
15575;BMP180;7888;46.748;8.102;2023-05-14T12:14:48;93795.00;;;18.90
15575;BMP180;7888;46.748;8.102;2023-05-14T12:17:17;93805.00;;;18.90
15575;BMP180;7888;46.748;8.102;2023-05-14T12:19:47;93800.00;;;18.90
15575;BMP180;7888;46.748;8.102;2023-05-14T12:22:18;93796.00;;;18.90
15575;BMP180;7888;46.748;8.102;2023-05-14T12:24:56;93768.00;;;18.80
15575;BMP180;7888;46.748;8.102;2023-05-14T12:27:26;93799.00;;;18.90
15575;BMP180;7888;46.748;8.102;2023-05-14T12:30:03;93789.00;;;18.80
15575;BMP180;7888;46.748;8.102;2023-05-14T12:32:34;93784.00;;;18.90
15575;BMP180;7888;46.748;8.102;2023-05-14T12:35:00;93785.00;;;18.90
15575;BMP180;7888;46.748;8.102;2023-05-14T12:37:26;93767.00;;;18.90
15575;BMP180;7888;46.748;8.102;2023-05-14T12:39:52;93776.00;;;18.90
15575;BMP180;7888;46.748;8.102;2023-05-14T12:42:18;93781.00;;;19.00
15575;BMP180;7888;46.748;8.102;2023-05-14T12:44:44;93784.00;;;19.00
15575;BMP180;7888;46.748;8.102;2023-05-14T12:47:10;93782.00;;;19.00
15575;BMP180;7888;46.748;8.102;2023-05-14T12:49:35;93780.00;;;19.00
15575;BMP180;7888;46.748;8.102;2023-05-14T12:52:02;93775.00;;;19.00
15575;BMP180;7888;46.748;8.102;2023-05-14T12:54:28;93769.00;;;19.00
15575;BMP180;7888;46.748;8.102;2023-05-14T12:56:53;93765.00;;;19.00
15575;BMP180;7888;46.748;8.102;2023-05-14T12:59:19;93778.00;;;19.00
15575;BMP180;7888;46.748;8.102;2023-05-14T13:01:45;93776.00;;;19.00
15575;BMP180;7888;46.748;8.102;2023-05-14T13:04:11;93775.00;;;19.00
15575;BMP180;7888;46.748;8.102;2023-05-14T13:06:38;93770.00;;;19.00
15575;BMP180;7888;46.748;8.102;2023-05-14T13:09:08;93766.00;;;19.00
15575;BMP180;7888;46.748;8.102;2023-05-14T13:11:34;93763.00;;;19.00
15575;BMP180;7888;46.748;8.102;2023-05-14T13:14:01;93755.00;;;19.00
15575;BMP180;7888;46.748;8.102;2023-05-14T13:16:28;93765.00;;;18.90
15575;BMP180;7888;46.748;8.102;2023-05-14T13:18:54;93762.00;;;19.00
15575;BMP180;7888;46.748;8.102;2023-05-14T13:21:20;93743.00;;;19.00
15575;BMP180;7888;46.748;8.102;2023-05-14T13:23:47;93766.00;;;19.00
15575;BMP180;7888;46.748;8.102;2023-05-14T13:26:14;93763.00;;;19.10
15575;BMP180;7888;46.748;8.102;2023-05-14T13:28:40;93765.00;;;19.00
15575;BMP180;7888;46.748;8.102;2023-05-14T13:31:08;93766.00;;;19.00
15575;BMP180;7888;46.748;8.102;2023-05-14T13:33:38;93768.00;;;19.00
15575;BMP180;7888;46.748;8.102;2023-05-14T13:36:04;93767.00;;;19.00
15575;BMP180;7888;46.748;8.102;2023-05-14T13:38:30;93764.00;;;19.00
15575;BMP180;7888;46.748;8.102;2023-05-14T13:40:56;93758.00;;;19.00
15575;BMP180;7888;46.748;8.102;2023-05-14T13:43:35;93767.00;;;19.00
15575;BMP180;7888;46.748;8.102;2023-05-14T13:46:03;93767.00;;;19.00
15575;BMP180;7888;46.748;8.102;2023-05-14T13:48:29;93747.00;;;19.00
15575;BMP180;7888;46.748;8.102;2023-05-14T13:50:58;93750.00;;;19.00
15575;BMP180;7888;46.748;8.102;2023-05-14T13:53:25;93769.00;;;19.00
15575;BMP180;7888;46.748;8.102;2023-05-14T13:55:51;93750.00;;;19.00
15575;BMP180;7888;46.748;8.102;2023-05-14T13:58:25;93774.00;;;19.00
15575;BMP180;7888;46.748;8.102;2023-05-14T14:00:52;93767.00;;;19.00
15575;BMP180;7888;46.748;8.102;2023-05-14T14:03:18;93774.00;;;19.00
15575;BMP180;7888;46.748;8.102;2023-05-14T14:05:44;93765.00;;;18.90
15575;BMP180;7888;46.748;8.102;2023-05-14T14:08:10;93772.00;;;18.90
15575;BMP180;7888;46.748;8.102;2023-05-14T14:10:37;93766.00;;;18.90
15575;BMP180;7888;46.748;8.102;2023-05-14T14:13:05;93769.00;;;18.90
15575;BMP180;7888;46.748;8.102;2023-05-14T14:15:31;93778.00;;;18.80
15575;BMP180;7888;46.748;8.102;2023-05-14T14:17:57;93772.00;;;18.80
15575;BMP180;7888;46.748;8.102;2023-05-14T14:20:22;93776.00;;;18.80
15575;BMP180;7888;46.748;8.102;2023-05-14T14:22:48;93762.00;;;18.90
15575;BMP180;7888;46.748;8.102;2023-05-14T14:25:14;93771.00;;;18.90
15575;BMP180;7888;46.748;8.102;2023-05-14T14:27:40;93769.00;;;18.90
15575;BMP180;7888;46.748;8.102;2023-05-14T14:30:10;93770.00;;;18.90
15575;BMP180;7888;46.748;8.102;2023-05-14T14:32:49;93784.00;;;18.90
15575;BMP180;7888;46.748;8.102;2023-05-14T14:35:18;93775.00;;;18.90
15575;BMP180;7888;46.748;8.102;2023-05-14T14:37:44;93776.00;;;18.90